Time;durP1;ratioP1;P1;durP2;ratioP2;P2;SDS_P1;SDS_P2;PMS_P1;PMS_P2;Temp;Humidity;BMP_temperature;BMP_pressure;BME280_temperature;BME280_humidity;BME280_pressure;Samples;Min_cycle;Max_cycle;Signal;HPM_P1;HPM_P2
2023/12/02 00:01:22;;;;;;;0.20;0.20;;;;;;;-5.94;100.00;95479.66;5044281;28;20040;-77
2023/12/02 00:04:08;;;;;;;0.20;0.20;;;;;;;-6.18;100.00;95488.41;5031353;28;20060;-76
2023/12/02 00:06:54;;;;;;;0.20;0.20;;;;;;;-6.36;100.00;95491.22;5045668;28;20090;-76
2023/12/02 00:09:42;;;;;;;0.20;0.20;;;;;;;-6.46;100.00;95486.22;5045515;28;20141;-76
2023/12/02 00:12:28;;;;;;;0.20;0.20;;;;;;;-6.49;100.00;95489.16;5033034;28;20086;-77
2023/12/02 00:15:14;;;;;;;0.20;0.20;;;;;;;-6.46;100.00;95498.41;5049240;28;20025;-77
2023/12/02 00:18:00;;;;;;;0.20;0.20;;;;;;;-6.58;100.00;95495.34;5050164;28;20502;-77
2023/12/02 00:20:46;;;;;;;0.20;0.20;;;;;;;-6.71;100.00;95497.66;5047785;28;20515;-77
2023/12/02 00:23:31;;;;;;;0.20;0.20;;;;;;;-6.80;100.00;95504.66;5049350;28;20048;-77
2023/12/02 00:26:17;;;;;;;0.20;0.20;;;;;;;-6.70;100.00;95509.66;5049784;28;20083;-78
2023/12/02 00:29:15;;;;;;;0.20;0.20;;;;;;;-6.55;100.00;95520.22;5047831;28;20037;-77
2023/12/02 00:32:01;;;;;;;0.20;0.20;;;;;;;-6.38;100.00;95513.19;5048103;28;20064;-77
2023/12/02 00:34:46;;;;;;;0.20;0.20;;;;;;;-6.19;100.00;95513.63;5048276;28;20041;-77
2023/12/02 00:37:32;;;;;;;0.28;0.28;;;;;;;-6.09;100.00;95513.44;5048415;28;20532;-76
2023/12/02 00:40:18;;;;;;;0.20;0.20;;;;;;;-5.99;100.00;95508.00;5048162;28;20463;-77
2023/12/02 00:43:04;;;;;;;0.20;0.20;;;;;;;-5.91;100.00;95501.00;5049098;28;20037;-76
2023/12/02 00:45:50;;;;;;;0.20;0.20;;;;;;;-5.81;100.00;95500.75;5048274;28;20556;-76
2023/12/02 00:48:36;;;;;;;0.20;0.20;;;;;;;-5.54;100.00;95502.06;5047026;28;20072;-77
2023/12/02 00:51:22;;;;;;;0.20;0.20;;;;;;;-5.33;100.00;95498.84;5049256;28;20045;-77
2023/12/02 00:54:07;;;;;;;0.20;0.20;;;;;;;-5.45;100.00;95498.41;5048449;28;20141;-76
2023/12/02 00:56:53;;;;;;;0.20;0.20;;;;;;;-5.35;100.00;95498.22;5049298;28;20481;-77
2023/12/02 00:59:39;;;;;;;0.20;0.20;;;;;;;-5.08;100.00;95504.69;5047748;28;20078;-76
2023/12/02 01:02:25;;;;;;;0.20;0.20;;;;;;;-4.90;100.00;95505.22;5046733;28;20051;-76
2023/12/02 01:05:11;;;;;;;0.20;0.20;;;;;;;-4.73;100.00;95498.06;5037508;28;20098;-77
2023/12/02 01:07:57;;;;;;;0.20;0.20;;;;;;;-4.80;100.00;95492.72;5045495;28;20080;-78
2023/12/02 01:10:43;;;;;;;0.20;0.20;;;;;;;-4.84;100.00;95493.25;5048924;28;20159;-77
2023/12/02 01:13:29;;;;;;;0.20;0.20;;;;;;;-5.21;100.00;95488.84;5048335;28;20068;-78
2023/12/02 01:16:15;;;;;;;0.20;0.20;;;;;;;-5.43;100.00;95490.44;5047227;28;20087;-77
2023/12/02 01:19:00;;;;;;;0.20;0.20;;;;;;;-5.41;100.00;95491.06;5048755;28;20921;-77
2023/12/02 01:21:46;;;;;;;0.20;0.20;;;;;;;-5.16;100.00;95496.94;5046239;28;20047;-77
2023/12/02 01:24:32;;;;;;;0.28;0.28;;;;;;;-4.91;100.00;95508.78;5048591;28;20448;-77
2023/12/02 01:27:18;;;;;;;0.30;0.30;;;;;;;-4.94;100.00;95509.16;5046647;28;20083;-77
2023/12/02 01:30:04;;;;;;;0.30;0.30;;;;;;;-4.73;100.00;95505.06;5046671;28;20603;-77
2023/12/02 01:32:50;;;;;;;0.25;0.25;;;;;;;-4.98;100.00;95509.66;5032110;28;20416;-76
2023/12/02 01:35:36;;;;;;;0.20;0.20;;;;;;;-5.25;100.00;95518.84;5049458;28;20037;-77
2023/12/02 01:38:22;;;;;;;0.20;0.20;;;;;;;-5.30;100.00;95521.16;5048810;28;20481;-77
2023/12/02 01:41:08;;;;;;;0.20;0.20;;;;;;;-5.39;100.00;95520.41;5049688;28;20047;-77
2023/12/02 01:43:54;;;;;;;0.20;0.20;;;;;;;-5.26;100.00;95520.66;5035425;28;20334;-77
2023/12/02 01:46:43;;;;;;;0.20;0.20;;;;;;;-5.29;100.00;95530.59;5047402;28;20156;-77
2023/12/02 01:49:31;;;;;;;0.20;0.20;;;;;;;-5.29;100.00;95525.38;5048344;28;20063;-77
2023/12/02 01:52:17;;;;;;;0.20;0.20;;;;;;;-5.33;100.00;95520.53;5048464;28;20098;-77
2023/12/02 01:55:04;;;;;;;0.20;0.20;;;;;;;-5.44;100.00;95520.94;5047819;28;20044;-77
2023/12/02 01:57:50;;;;;;;0.20;0.20;;;;;;;-5.46;100.00;95524.66;5046830;28;20167;-77
2023/12/02 02:00:36;;;;;;;0.20;0.20;;;;;;;-5.64;100.00;95528.34;5046668;28;20402;-77
2023/12/02 02:03:22;;;;;;;0.20;0.20;;;;;;;-5.59;100.00;95534.88;5046887;28;20041;-77
2023/12/02 02:06:11;;;;;;;0.20;0.20;;;;;;;-5.52;100.00;95534.00;5047837;28;20097;-77
2023/12/02 02:08:57;;;;;;;0.20;0.20;;;;;;;-5.56;100.00;95537.94;5043899;28;20040;-78
2023/12/02 02:11:43;;;;;;;0.20;0.20;;;;;;;-5.35;100.00;95542.53;5045968;28;20067;-77
2023/12/02 02:14:28;;;;;;;0.20;0.20;;;;;;;-5.28;100.00;95538.28;5047649;28;20071;-77
2023/12/02 02:17:14;;;;;;;0.20;0.20;;;;;;;-5.55;100.00;95542.16;5046490;28;20036;-77
2023/12/02 02:20:00;;;;;;;0.20;0.20;;;;;;;-5.55;100.00;95536.13;5048325;28;20485;-77
2023/12/02 02:22:46;;;;;;;0.20;0.20;;;;;;;-5.48;100.00;95543.09;5044385;28;20099;-77
2023/12/02 02:25:32;;;;;;;0.20;0.20;;;;;;;-5.16;100.00;95549.09;5047658;28;20139;-77
2023/12/02 02:28:26;;;;;;;0.30;0.30;;;;;;;-5.02;100.00;95547.53;5043064;28;20902;-77
2023/12/02 02:31:12;;;;;;;0.20;0.20;;;;;;;-5.05;100.00;95552.13;5044255;28;20910;-77
2023/12/02 02:33:57;;;;;;;0.20;0.20;;;;;;;-5.17;100.00;95550.09;5045115;28;20101;-77
2023/12/02 02:36:43;;;;;;;0.20;0.20;;;;;;;-5.31;100.00;95551.63;5046085;28;20401;-78
2023/12/02 02:39:29;;;;;;;0.20;0.20;;;;;;;-5.28;100.00;95553.09;5044289;28;20981;-79
2023/12/02 02:42:16;;;;;;;0.20;0.20;;;;;;;-5.30;100.00;95555.06;5045008;28;20097;-76
2023/12/02 02:45:01;;;;;;;0.20;0.20;;;;;;;-5.17;100.00;95552.69;5036199;28;20516;-78
2023/12/02 02:47:47;;;;;;;0.15;0.15;;;;;;;-5.28;100.00;95553.91;5044514;28;20439;-77
2023/12/02 02:50:33;;;;;;;0.20;0.20;;;;;;;-5.38;100.00;95553.31;5046399;28;20052;-78
2023/12/02 02:53:19;;;;;;;0.20;0.20;;;;;;;-5.39;100.00;95552.50;5045131;28;20047;-77
2023/12/02 02:56:06;;;;;;;0.20;0.20;;;;;;;-5.43;100.00;95553.84;5047264;28;20503;-79
2023/12/02 02:58:51;;;;;;;0.20;0.20;;;;;;;-5.20;100.00;95560.88;5044438;28;20067;-78
2023/12/02 03:01:39;;;;;;;0.20;0.20;;;;;;;-5.35;100.00;95552.97;5033027;28;20047;-78
2023/12/02 03:04:25;;;;;;;0.20;0.20;;;;;;;-5.10;100.00;95556.25;5037120;28;20161;-78
2023/12/02 03:07:11;;;;;;;0.10;0.10;;;;;;;-5.20;100.00;95559.09;5045468;28;20048;-79
2023/12/02 03:09:57;;;;;;;0.20;0.20;;;;;;;-5.40;100.00;95557.88;5046674;28;20036;-77
2023/12/02 03:12:43;;;;;;;0.15;0.15;;;;;;;-5.53;100.00;95558.44;5045800;28;20848;-77
2023/12/02 03:15:28;;;;;;;0.10;0.10;;;;;;;-5.71;100.00;95561.28;5046383;28;20143;-79
2023/12/02 03:18:14;;;;;;;0.20;0.20;;;;;;;-5.61;100.00;95563.69;5047663;28;20083;-79
2023/12/02 03:21:00;;;;;;;0.20;0.20;;;;;;;-5.50;100.00;95550.28;5046686;28;20102;-79
2023/12/02 03:23:49;;;;;;;0.20;0.20;;;;;;;-5.44;100.00;95554.00;5044715;28;20048;-79
2023/12/02 03:26:36;;;;;;;0.30;0.30;;;;;;;-5.40;100.00;95555.28;5043709;28;20044;-78
2023/12/02 03:29:24;;;;;;;0.20;0.20;;;;;;;-5.40;100.00;95556.09;5047604;28;20036;-79
2023/12/02 03:32:10;;;;;;;0.20;0.20;;;;;;;-5.38;100.00;95567.16;5045137;28;20465;-78
2023/12/02 03:34:56;;;;;;;0.20;0.20;;;;;;;-5.36;100.00;95560.00;5046232;28;20167;-79
2023/12/02 03:37:42;;;;;;;0.20;0.20;;;;;;;-5.32;100.00;95565.66;5045522;28;20025;-77
2023/12/02 03:40:28;;;;;;;0.20;0.20;;;;;;;-5.34;100.00;95562.41;5045618;28;20044;-76
2023/12/02 03:43:14;;;;;;;0.20;0.20;;;;;;;-5.42;100.00;95563.28;5034552;28;20557;-77
2023/12/02 03:46:01;;;;;;;0.20;0.20;;;;;;;-5.41;100.00;95557.06;5049666;28;20052;-77
2023/12/02 03:48:47;;;;;;;0.20;0.20;;;;;;;-5.21;100.00;95554.03;5051278;28;20048;-77
2023/12/02 03:51:33;;;;;;;0.20;0.20;;;;;;;-5.49;100.00;95562.34;5050696;28;20113;-78
2023/12/02 03:54:19;;;;;;;0.22;0.22;;;;;;;-5.72;100.00;95570.09;5049076;28;20033;-78
2023/12/02 03:57:05;;;;;;;0.20;0.20;;;;;;;-5.86;100.00;95572.59;5048199;28;20066;-78
2023/12/02 03:59:51;;;;;;;0.20;0.20;;;;;;;-5.90;100.00;95579.94;5048416;28;20036;-78
2023/12/02 04:02:38;;;;;;;0.20;0.20;;;;;;;-5.58;100.00;95579.00;5049045;28;20893;-78
2023/12/02 04:05:24;;;;;;;0.20;0.20;;;;;;;-5.59;100.00;95580.00;5049866;28;20662;-78
2023/12/02 04:08:09;;;;;;;0.20;0.20;;;;;;;-5.65;100.00;95583.28;5048423;28;20044;-78
2023/12/02 04:10:55;;;;;;;0.22;0.22;;;;;;;-5.43;100.00;95592.13;5049968;28;20037;-77
2023/12/02 04:13:41;;;;;;;0.20;0.20;;;;;;;-5.66;100.00;95586.88;5049691;28;20083;-77
2023/12/02 04:16:27;;;;;;;0.20;0.20;;;;;;;-5.55;100.00;95598.69;5049668;28;20128;-77
2023/12/02 04:19:13;;;;;;;0.20;0.20;;;;;;;-5.39;100.00;95599.44;5049965;28;20536;-78
2023/12/02 04:21:59;;;;;;;0.20;0.20;;;;;;;-5.40;100.00;95602.22;5049913;28;20038;-78
2023/12/02 04:24:46;;;;;;;0.20;0.20;;;;;;;-5.59;100.00;95598.25;5046669;28;20064;-78
2023/12/02 04:27:31;;;;;;;0.20;0.20;;;;;;;-5.64;100.00;95610.97;5048024;28;20044;-77
2023/12/02 04:30:17;;;;;;;0.20;0.20;;;;;;;-5.71;100.00;95605.59;5049110;28;20088;-78
2023/12/02 04:33:06;;;;;;;0.20;0.20;;;;;;;-5.75;100.00;95604.34;5048047;28;20681;-78
2023/12/02 04:35:53;;;;;;;0.20;0.20;;;;;;;-5.72;100.00;95616.19;5047210;28;20072;-78
2023/12/02 04:38:39;;;;;;;0.20;0.20;;;;;;;-5.70;100.00;95619.44;5049306;28;20100;-78
2023/12/02 04:41:25;;;;;;;0.20;0.20;;;;;;;-5.58;100.00;95617.31;5048461;28;20489;-77
2023/12/02 04:44:11;;;;;;;0.20;0.20;;;;;;;-5.57;100.00;95622.34;5047707;28;20083;-78
2023/12/02 04:46:57;;;;;;;0.20;0.20;;;;;;;-5.73;100.00;95627.63;5049885;28;20048;-78
2023/12/02 04:49:43;;;;;;;0.20;0.20;;;;;;;-5.73;100.00;95627.63;5048858;28;20032;-78
2023/12/02 04:52:29;;;;;;;0.20;0.20;;;;;;;-6.03;100.00;95631.78;5048123;28;20492;-77
2023/12/02 04:55:15;;;;;;;0.20;0.20;;;;;;;-5.84;100.00;95638.38;5049293;28;20048;-78
2023/12/02 04:58:01;;;;;;;0.20;0.20;;;;;;;-5.95;100.00;95627.38;5049071;28;20032;-78
2023/12/02 05:00:47;;;;;;;0.20;0.20;;;;;;;-5.85;100.00;95628.94;5047075;28;20683;-78
2023/12/02 05:03:33;;;;;;;0.20;0.20;;;;;;;-5.80;100.00;95637.88;5049505;28;20082;-78
2023/12/02 05:06:19;;;;;;;0.20;0.20;;;;;;;-5.78;100.00;95637.72;5051212;28;20156;-78
2023/12/02 05:09:08;;;;;;;0.20;0.20;;;;;;;-5.87;100.00;95642.13;5051367;28;20032;-77
2023/12/02 05:11:53;;;;;;;0.20;0.20;;;;;;;-6.12;100.00;95644.00;5050368;28;20075;-77
2023/12/02 05:14:39;;;;;;;0.20;0.20;;;;;;;-5.86;100.00;95640.34;5049154;28;20048;-76
2023/12/02 05:17:25;;;;;;;0.20;0.20;;;;;;;-5.96;100.00;95653.59;5051176;28;20035;-78
2023/12/02 05:20:12;;;;;;;0.20;0.20;;;;;;;-6.11;100.00;95650.84;5049757;28;20068;-77
2023/12/02 05:22:58;;;;;;;0.20;0.20;;;;;;;-6.01;100.00;95661.09;5049733;28;20036;-76
2023/12/02 05:25:44;;;;;;;0.10;0.10;;;;;;;-5.75;100.00;95659.06;5050685;28;20090;-76
2023/12/02 05:28:31;;;;;;;0.10;0.10;;;;;;;-5.49;100.00;95665.81;5049834;28;20102;-78
2023/12/02 05:31:19;;;;;;;0.13;0.13;;;;;;;-5.45;100.00;95667.91;5049818;28;20894;-79
2023/12/02 05:34:05;;;;;;;0.20;0.20;;;;;;;-5.66;100.00;95665.06;5046144;28;20067;-79
2023/12/02 05:36:51;;;;;;;0.20;0.20;;;;;;;-5.61;100.00;95665.34;5050780;28;20028;-79
2023/12/02 05:39:37;;;;;;;0.20;0.20;;;;;;;-5.64;100.00;95665.69;5048256;28;20477;-78
2023/12/02 05:42:23;;;;;;;0.20;0.20;;;;;;;-5.83;100.00;95664.28;5049578;28;20140;-77
2023/12/02 05:45:09;;;;;;;0.20;0.20;;;;;;;-5.92;100.00;95673.94;5050322;28;20798;-77
2023/12/02 05:47:55;;;;;;;0.20;0.20;;;;;;;-6.00;100.00;95670.53;5051730;28;20033;-77
2023/12/02 05:50:41;;;;;;;0.20;0.20;;;;;;;-6.00;100.00;95673.13;5048614;28;20526;-79
2023/12/02 05:53:27;;;;;;;0.20;0.20;;;;;;;-6.20;100.00;95672.69;5050868;28;20048;-77
2023/12/02 05:56:13;;;;;;;0.20;0.20;;;;;;;-6.19;100.00;95674.28;5052266;28;20047;-77
2023/12/02 05:58:59;;;;;;;0.20;0.20;;;;;;;-6.09;100.00;95684.53;5050295;28;20128;-77
2023/12/02 06:01:45;;;;;;;0.22;0.22;;;;;;;-6.13;100.00;95678.84;5049174;28;20045;-79
2023/12/02 06:04:31;;;;;;;0.20;0.20;;;;;;;-6.06;100.00;95689.44;5049025;28;20044;-78
2023/12/02 06:07:17;;;;;;;0.20;0.20;;;;;;;-6.01;100.00;95692.34;5048699;28;20123;-79
2023/12/02 06:10:03;;;;;;;0.20;0.20;;;;;;;-6.11;100.00;95696.94;5037609;28;20540;-77
2023/12/02 06:12:49;;;;;;;0.22;0.22;;;;;;;-5.84;100.00;95687.88;5048921;28;20083;-78
2023/12/02 06:15:37;;;;;;;0.20;0.20;;;;;;;-5.66;100.00;95691.13;5049967;28;20041;-78
2023/12/02 06:18:23;;;;;;;0.20;0.20;;;;;;;-5.39;100.00;95693.31;5050143;28;20458;-78
2023/12/02 06:21:11;;;;;;;0.20;0.20;;;;;;;-5.35;100.00;95699.84;5051422;28;20043;-77
2023/12/02 06:23:57;;;;;;;0.20;0.20;;;;;;;-5.17;100.00;95704.00;5041180;28;20105;-78
2023/12/02 06:26:43;;;;;;;0.20;0.20;;;;;;;-5.20;100.00;95705.16;5056393;28;20044;-78
2023/12/02 06:29:29;;;;;;;0.20;0.20;;;;;;;-5.25;100.00;95712.69;5050670;28;20037;-78
2023/12/02 06:32:15;;;;;;;0.20;0.20;;;;;;;-5.41;100.00;95713.53;5050899;28;20041;-77
2023/12/02 06:35:01;;;;;;;0.20;0.20;;;;;;;-5.30;100.00;95722.78;5052739;28;20055;-77
2023/12/02 06:37:49;;;;;;;0.30;0.30;;;;;;;-5.38;100.00;95710.59;5052222;28;20033;-78
2023/12/02 06:40:35;;;;;;;0.20;0.20;;;;;;;-5.27;100.00;95725.09;5003527;28;20515;-77
2023/12/02 06:43:21;;;;;;;0.20;0.20;;;;;;;-5.49;100.00;95717.97;5048242;28;20068;-78
2023/12/02 06:46:08;;;;;;;0.20;0.20;;;;;;;-5.32;100.00;95725.56;5045516;28;20094;-78
2023/12/02 06:48:54;;;;;;;0.20;0.20;;;;;;;-5.19;100.00;95727.66;5053655;28;20045;-77
2023/12/02 06:51:40;;;;;;;0.20;0.20;;;;;;;-5.37;100.00;95727.03;5051148;28;20075;-78
2023/12/02 06:54:26;;;;;;;0.10;0.10;;;;;;;-5.16;100.00;95729.09;5050672;28;20060;-77
2023/12/02 06:57:12;;;;;;;0.10;0.10;;;;;;;-4.90;100.00;95723.59;5034359;28;20033;-77
2023/12/02 06:59:58;;;;;;;0.20;0.20;;;;;;;-4.93;100.00;95740.44;5043312;28;20033;-78
2023/12/02 07:02:44;;;;;;;0.20;0.20;;;;;;;-5.02;100.00;95738.84;5048898;28;20049;-77
2023/12/02 07:05:30;;;;;;;0.20;0.20;;;;;;;-5.01;100.00;95743.06;5051988;28;20037;-77
2023/12/02 07:08:15;;;;;;;0.20;0.20;;;;;;;-5.09;100.00;95743.09;5049035;28;20060;-77
2023/12/02 07:11:02;;;;;;;0.20;0.20;;;;;;;-5.35;100.00;95762.44;5051833;28;20891;-77
2023/12/02 07:13:48;;;;;;;0.10;0.10;;;;;;;-5.03;100.00;95765.13;5049045;28;20040;-77
2023/12/02 07:16:37;;;;;;;0.20;0.20;;;;;;;-5.08;100.00;95779.47;5048931;28;20511;-77
2023/12/02 07:19:23;;;;;;;0.20;0.20;;;;;;;-5.15;100.00;95783.72;5048185;28;20143;-76
2023/12/02 07:22:08;;;;;;;0.20;0.20;;;;;;;-4.87;100.00;95786.75;5047307;28;20045;-77
2023/12/02 07:24:54;;;;;;;0.20;0.20;;;;;;;-4.64;100.00;95783.38;5049075;28;20048;-77
2023/12/02 07:27:40;;;;;;;0.20;0.20;;;;;;;-4.55;100.00;95783.16;5048536;28;20080;-77
2023/12/02 07:30:27;;;;;;;0.20;0.20;;;;;;;-5.01;100.00;95790.03;5052447;28;20033;-77
2023/12/02 07:33:14;;;;;;;0.20;0.20;;;;;;;-4.85;100.00;95795.22;5049297;28;20029;-77
2023/12/02 07:35:59;;;;;;;0.20;0.20;;;;;;;-4.74;100.00;95799.25;5048948;28;20054;-77
2023/12/02 07:38:45;;;;;;;0.22;0.22;;;;;;;-4.69;100.00;95793.50;5048055;28;20052;-77
2023/12/02 07:41:31;;;;;;;0.10;0.10;;;;;;;-4.82;100.00;95801.91;5048720;28;20043;-77
2023/12/02 07:44:18;;;;;;;0.20;0.20;;;;;;;-4.89;100.00;95804.38;5024933;28;20083;-77
2023/12/02 07:47:04;;;;;;;0.20;0.20;;;;;;;-4.84;100.00;95807.28;5048395;28;20075;-77
2023/12/02 07:49:50;;;;;;;0.22;0.22;;;;;;;-4.74;100.00;95804.47;5038456;28;20051;-76
2023/12/02 07:52:35;;;;;;;0.20;0.20;;;;;;;-4.95;100.00;95799.81;5048789;28;20509;-76
2023/12/02 07:55:21;;;;;;;0.20;0.20;;;;;;;-5.10;100.00;95809.31;5048150;28;20045;-77
2023/12/02 07:58:07;;;;;;;0.20;0.20;;;;;;;-5.21;100.00;95814.91;5024278;28;20605;-77
2023/12/02 08:00:53;;;;;;;0.20;0.20;;;;;;;-4.93;100.00;95816.13;5034520;28;20744;-77
2023/12/02 08:03:42;;;;;;;0.20;0.20;;;;;;;-5.05;100.00;95815.69;5047569;28;20995;-77
2023/12/02 08:06:28;;;;;;;0.10;0.10;;;;;;;-4.96;100.00;95821.69;5048057;28;20037;-77
2023/12/02 08:09:14;;;;;;;0.20;0.20;;;;;;;-5.05;100.00;95826.13;5049932;28;20033;-77
2023/12/02 08:12:00;;;;;;;0.20;0.20;;;;;;;-4.98;100.00;95815.81;5050027;28;20053;-77
2023/12/02 08:14:46;;;;;;;0.20;0.20;;;;;;;-4.59;100.00;95828.06;5049881;28;20040;-77
2023/12/02 08:17:32;;;;;;;0.20;0.20;;;;;;;-4.70;100.00;95836.28;5048270;28;20463;-77
2023/12/02 08:20:18;;;;;;;0.20;0.20;;;;;;;-4.77;100.00;95836.94;5051925;28;20469;-77
2023/12/02 08:23:04;;;;;;;0.20;0.20;;;;;;;-4.74;100.00;95842.84;5050636;28;20036;-77
2023/12/02 08:25:50;;;;;;;0.20;0.20;;;;;;;-4.77;100.00;95850.00;5051159;28;20048;-77
2023/12/02 08:28:36;;;;;;;0.20;0.20;;;;;;;-4.94;100.00;95851.03;5047240;28;20244;-77
2023/12/02 08:31:21;;;;;;;0.20;0.20;;;;;;;-4.73;100.00;95854.91;5050901;28;20033;-78
2023/12/02 08:34:07;;;;;;;0.30;0.30;;;;;;;-4.74;100.00;95861.91;5040737;28;20044;-77
2023/12/02 08:36:53;;;;;;;0.20;0.20;;;;;;;-4.52;100.00;95862.97;5052714;28;20043;-77
2023/12/02 08:39:39;;;;;;;0.20;0.20;;;;;;;-4.09;100.00;95868.66;5052148;28;20044;-77
2023/12/02 08:42:25;;;;;;;0.20;0.20;;;;;;;-4.06;100.00;95873.53;5050961;28;20087;-77
2023/12/02 08:45:11;;;;;;;0.20;0.20;;;;;;;-4.02;100.00;95877.44;5055782;28;20050;-77
2023/12/02 08:47:57;;;;;;;0.20;0.20;;;;;;;-4.01;100.00;95863.38;5053498;28;20036;-77
2023/12/02 08:50:43;;;;;;;0.20;0.20;;;;;;;-4.24;100.00;95877.22;5054608;28;20098;-77
2023/12/02 08:53:29;;;;;;;0.20;0.20;;;;;;;-4.60;100.00;95882.09;5038814;28;20044;-77
2023/12/02 08:56:15;;;;;;;0.22;0.22;;;;;;;-4.59;100.00;95883.75;5053697;28;20040;-76
2023/12/02 08:59:01;;;;;;;0.20;0.20;;;;;;;-4.75;100.00;95894.19;5051088;28;20032;-76
2023/12/02 09:01:47;;;;;;;0.20;0.20;;;;;;;-4.95;100.00;95882.53;5050293;28;20060;-76
2023/12/02 09:04:32;;;;;;;0.20;0.20;;;;;;;-4.99;100.00;95892.47;5051086;28;20120;-76
2023/12/02 09:07:21;;;;;;;0.20;0.20;;;;;;;-4.60;100.00;95883.88;5030512;28;20532;-76
2023/12/02 09:10:08;;;;;;;0.22;0.22;;;;;;;-4.74;100.00;95888.03;5050487;28;20036;-76
2023/12/02 09:12:55;;;;;;;0.20;0.20;;;;;;;-4.87;100.00;95883.31;5042134;28;20520;-76
2023/12/02 09:15:42;;;;;;;0.20;0.20;;;;;;;-4.28;100.00;95881.16;5051509;28;20047;-76
2023/12/02 09:18:37;;;;;;;0.20;0.20;;;;;;;-4.02;100.00;95882.66;5051200;28;20119;-76
2023/12/02 09:21:41;;;;;;;0.20;0.20;;;;;;;-3.70;100.00;95884.28;5052521;28;20048;-77
2023/12/02 09:24:36;;;;;;;0.20;0.20;;;;;;;-3.54;100.00;95883.34;5051557;28;20068;-77
2023/12/02 09:27:59;;;;;;;0.20;0.20;;;;;;;-3.54;100.00;95893.81;5035541;28;20040;-76
2023/12/02 09:31:13;;;;;;;0.20;0.20;;;;;;;-3.74;100.00;95899.47;5038841;28;20037;-76
2023/12/02 09:34:02;;;;;;;0.28;0.28;;;;;;;-3.60;100.00;95897.91;5049559;28;20041;-76
2023/12/02 09:36:48;;;;;;;0.20;0.20;;;;;;;-3.51;100.00;95896.88;5051963;28;20033;-77
2023/12/02 09:40:00;;;;;;;0.20;0.20;;;;;;;-3.52;100.00;95894.44;5053467;28;20052;-77
2023/12/02 09:42:56;;;;;;;0.22;0.22;;;;;;;-3.52;100.00;95904.91;5036376;28;20048;-77
2023/12/02 09:46:03;;;;;;;0.20;0.20;;;;;;;-3.25;100.00;95900.94;5050477;28;20132;-77
2023/12/02 09:49:04;;;;;;;0.20;0.20;;;;;;;-3.37;100.00;95890.88;5034988;28;20043;-77
2023/12/02 09:52:08;;;;;;;0.20;0.20;;;;;;;-3.43;100.00;95896.00;5051286;28;20509;-77
2023/12/02 09:55:14;;;;;;;0.20;0.20;;;;;;;-3.41;100.00;95894.84;5050737;28;20104;-77
2023/12/02 09:58:18;;;;;;;0.20;0.20;;;;;;;-4.04;100.00;95908.97;5048516;28;20098;-77
2023/12/02 10:01:10;;;;;;;0.30;0.30;;;;;;;-3.76;100.00;95911.91;5050534;28;20047;-77
2023/12/02 10:04:08;;;;;;;0.20;0.20;;;;;;;-4.03;100.00;95909.78;5051778;28;20226;-77
2023/12/02 10:07:03;;;;;;;0.20;0.20;;;;;;;-4.15;100.00;95908.53;5051890;28;20098;-77
2023/12/02 10:09:48;;;;;;;0.20;0.20;;;;;;;-4.23;100.00;95918.03;5051593;28;20074;-78
2023/12/02 10:12:40;;;;;;;0.20;0.20;;;;;;;-3.82;100.00;95920.44;5032622;28;20092;-78
2023/12/02 10:15:29;;;;;;;0.20;0.20;;;;;;;-3.83;100.00;95912.78;5024240;28;20048;-77
2023/12/02 10:18:17;;;;;;;0.20;0.20;;;;;;;-3.61;100.00;95927.69;5050863;28;20124;-78
2023/12/02 10:21:08;;;;;;;0.20;0.20;;;;;;;-3.32;100.00;95932.22;5052634;28;20041;-77
2023/12/02 10:24:01;;;;;;;0.20;0.20;;;;;;;-3.35;100.00;95927.34;5049901;28;20047;-77
2023/12/02 10:26:58;;;;;;;0.20;0.20;;;;;;;-3.77;100.00;95928.59;5050415;28;20044;-77
2023/12/02 10:30:10;;;;;;;0.20;0.20;;;;;;;-3.94;100.00;95927.88;5049820;28;20043;-77
2023/12/02 10:33:08;;;;;;;0.20;0.20;;;;;;;-3.00;100.00;95927.72;5049270;28;20037;-77
2023/12/02 10:36:04;;;;;;;0.20;0.20;;;;;;;-2.74;100.00;95915.03;5050419;28;20033;-77
2023/12/02 10:39:02;;;;;;;0.20;0.20;;;;;;;-2.06;100.00;95918.38;5052638;28;20136;-77
2023/12/02 10:41:52;;;;;;;0.20;0.20;;;;;;;-1.95;100.00;95912.66;5049494;28;20040;-77
2023/12/02 10:44:41;;;;;;;0.20;0.20;;;;;;;-2.55;100.00;95908.47;5051792;28;20071;-77
2023/12/02 10:47:30;;;;;;;0.20;0.20;;;;;;;-2.44;100.00;95909.81;5049036;28;20072;-77
2023/12/02 10:50:17;;;;;;;0.25;0.25;;;;;;;-2.14;100.00;95908.81;5047979;28;20040;-78
2023/12/02 10:53:04;;;;;;;0.20;0.20;;;;;;;-2.72;100.00;95905.22;5051259;28;20405;-77
2023/12/02 10:55:55;;;;;;;0.20;0.20;;;;;;;-3.20;100.00;95909.88;5048217;28;20915;-77
2023/12/02 10:58:43;;;;;;;0.30;0.30;;;;;;;-3.18;100.00;95914.97;5050323;28;20037;-77
2023/12/02 11:01:39;;;;;;;0.30;0.30;;;;;;;-2.54;100.00;95907.47;5031589;28;20033;-77
2023/12/02 11:04:58;;;;;;;0.20;0.20;;;;;;;-3.22;100.00;95885.69;5037592;28;20044;-77
2023/12/02 11:12:13;;;;;;;0.20;0.20;;;;;;;-2.73;100.00;95913.22;5041018;28;20051;-78
2023/12/02 11:15:51;;;;;;;;;;;;;;;;;;;;;
2023/12/02 11:19:26;;;;;;;0.20;0.20;;;;;;;-2.76;100.00;95888.22;5047672;28;20047;-78
2023/12/02 11:22:46;;;;;;;0.20;0.20;;;;;;;-2.83;100.00;95923.97;5030618;28;20047;-77
2023/12/02 11:26:00;;;;;;;;;;;;;;;;;;;;;
2023/12/02 11:30:17;;;;;;;0.20;0.20;;;;;;;-2.81;100.00;95921.97;5036031;28;20040;-77
2023/12/02 11:33:16;;;;;;;0.25;0.25;;;;;;;-2.30;100.00;95919.50;5021933;28;20044;-77
2023/12/02 11:36:31;;;;;;;0.20;0.20;;;;;;;-1.60;100.00;95915.50;5024996;28;20033;-76
2023/12/02 11:39:47;;;;;;;0.20;0.20;;;;;;;-1.08;100.00;95919.66;5022915;28;20136;-77
2023/12/02 11:42:56;;;;;;;0.22;0.22;;;;;;;-1.58;100.00;95909.06;5020959;28;20044;-78
2023/12/02 11:46:24;;;;;;;0.20;0.20;;;;;;;-1.57;100.00;95920.34;5025235;28;20049;-76
2023/12/02 11:49:44;;;;;;;0.25;0.25;;;;;;;-2.14;100.00;95932.41;5023824;28;20033;-77
2023/12/02 11:52:44;;;;;;;0.20;0.20;;;;;;;-2.31;100.00;95941.47;5020061;28;20543;-76
2023/12/02 11:55:55;;;;;;;0.20;0.20;;;;;;;-2.50;100.00;95923.63;5019940;28;20071;-77
2023/12/02 11:58:54;;;;;;;0.30;0.30;;;;;;;-2.67;100.00;95950.00;5035679;28;20118;-76
2023/12/02 12:01:58;;;;;;;0.30;0.30;;;;;;;-2.58;100.00;95959.41;5044402;28;20041;-76
2023/12/02 12:04:59;;;;;;;0.20;0.20;;;;;;;-3.08;100.00;95966.06;5014654;28;20532;-76
2023/12/02 12:07:58;;;;;;;0.20;0.20;;;;;;;-3.20;100.00;95966.66;5016856;28;20037;-76
2023/12/02 12:10:47;;;;;;;0.30;0.30;;;;;;;-3.15;100.00;95967.75;5031814;28;20421;-76
2023/12/02 12:13:35;;;;;;;0.22;0.22;;;;;;;-2.64;100.00;95975.03;5019398;28;20041;-76
2023/12/02 12:16:21;;;;;;;0.20;0.20;;;;;;;-1.87;100.00;95969.44;5031476;28;20072;-76
2023/12/02 12:19:07;;;;;;;0.20;0.20;;;;;;;-1.35;100.00;95981.56;5029911;28;20110;-76
2023/12/02 12:21:53;;;;;;;0.20;0.20;;;;;;;-0.97;100.00;95985.59;5030864;28;20045;-77
2023/12/02 12:24:39;;;;;;;0.20;0.20;;;;;;;-0.73;100.00;95989.66;5030655;28;20041;-76
2023/12/02 12:27:25;;;;;;;0.20;0.20;;;;;;;-0.49;100.00;95988.41;5019160;28;20068;-76
2023/12/02 12:30:11;;;;;;;0.30;0.30;;;;;;;-0.33;100.00;95992.59;5029965;28;20060;-76
2023/12/02 12:32:57;;;;;;;0.20;0.20;;;;;;;-0.08;100.00;95987.69;5009808;28;20041;-77
2023/12/02 12:35:43;;;;;;;0.20;0.20;;;;;;;-0.15;100.00;96000.81;5009874;28;20574;-77
2023/12/02 12:38:30;;;;;;;0.20;0.20;;;;;;;-0.33;100.00;95998.66;5008049;28;20410;-78
2023/12/02 12:41:19;;;;;;;0.20;0.20;;;;;;;-0.46;100.00;96001.19;5012292;28;20588;-77
2023/12/02 12:44:05;;;;;;;0.20;0.20;;;;;;;-0.58;100.00;96010.59;5009857;28;20038;-78
2023/12/02 12:46:53;;;;;;;0.20;0.20;;;;;;;-0.82;100.00;96024.13;5012439;28;20411;-77
2023/12/02 12:49:43;;;;;;;0.20;0.20;;;;;;;-0.80;100.00;96024.75;5012066;28;20735;-78
2023/12/02 12:52:35;;;;;;;0.20;0.20;;;;;;;-0.61;100.00;96037.25;5010325;28;20049;-78
2023/12/02 12:55:25;;;;;;;0.20;0.20;;;;;;;-0.58;100.00;96039.50;5017885;28;20674;-78
2023/12/02 12:58:16;;;;;;;0.20;0.20;;;;;;;-0.70;100.00;96033.13;5009716;28;20080;-78
2023/12/02 13:01:03;;;;;;;0.22;0.22;;;;;;;-0.76;100.00;96039.16;5010129;28;20117;-78
2023/12/02 13:03:51;;;;;;;0.20;0.20;;;;;;;-0.83;100.00;96046.16;5044601;28;20683;-77
2023/12/02 13:06:39;;;;;;;0.20;0.20;;;;;;;-1.18;100.00;96046.78;5039983;28;20080;-78
2023/12/02 13:09:30;;;;;;;0.20;0.20;;;;;;;-0.94;100.00;96052.69;5050378;28;20778;-78
2023/12/02 13:12:26;;;;;;;0.20;0.20;;;;;;;-0.82;100.00;96051.22;5047951;28;20052;-78
2023/12/02 13:15:18;;;;;;;0.20;0.20;;;;;;;-0.79;100.00;96058.72;5049169;28;20071;-77